createdAt,value
2016-09-13T00:00:57.092Z,1005.41
2016-09-13T00:01:57.071Z,1005.41
2016-09-13T00:02:57.054Z,1005.43
2016-09-13T00:03:57.035Z,1005.38
2016-09-13T00:04:57.019Z,1005.42
2016-09-13T00:05:57.000Z,1005.42
2016-09-13T00:06:56.983Z,1005.4
2016-09-13T00:07:56.965Z,1005.42
2016-09-13T00:08:56.947Z,1005.43
2016-09-13T00:09:56.930Z,1005.42
2016-09-13T00:10:56.912Z,1005.39
2016-09-13T00:11:56.894Z,1005.39
2016-09-13T00:12:56.876Z,1005.42
2016-09-13T00:13:56.858Z,1005.4
2016-09-13T00:14:56.841Z,1005.39
2016-09-13T00:15:56.823Z,1005.39
2016-09-13T00:16:56.806Z,1005.38
2016-09-13T00:17:56.794Z,1005.35
2016-09-13T00:18:56.769Z,1005.34
2016-09-13T00:19:56.752Z,1005.36
2016-09-13T00:20:56.734Z,1005.38
2016-09-13T00:21:56.717Z,1005.37
2016-09-13T00:22:56.698Z,1005.33
2016-09-13T00:23:56.680Z,1005.36
2016-09-13T00:24:56.662Z,1005.35
2016-09-13T00:25:56.643Z,1005.32
2016-09-13T00:26:56.675Z,1005.34
2016-09-13T00:27:56.609Z,1005.31
2016-09-13T00:28:56.591Z,1005.35
2016-09-13T00:29:56.573Z,1005.34
2016-09-13T00:30:56.556Z,1005.33
2016-09-13T00:31:56.538Z,1005.33
2016-09-13T00:32:56.519Z,1005.36
2016-09-13T00:33:56.500Z,1005.37
2016-09-13T00:34:56.482Z,1005.32
2016-09-13T00:35:56.467Z,1005.36
2016-09-13T00:36:56.447Z,1005.36
2016-09-13T00:37:56.429Z,1005.32
2016-09-13T00:38:56.412Z,1005.36
2016-09-13T00:39:56.392Z,1005.36
2016-09-13T00:40:56.375Z,1005.33
2016-09-13T00:41:56.358Z,1005.33
2016-09-13T00:42:56.339Z,1005.34
2016-09-13T00:43:56.321Z,1005.35
2016-09-13T00:44:56.302Z,1005.31
2016-09-13T00:45:56.285Z,1005.34
2016-09-13T00:46:56.267Z,1005.3
2016-09-13T00:47:56.250Z,1005.34
2016-09-13T00:48:56.232Z,1005.3
2016-09-13T00:49:56.223Z,1005.34
2016-09-13T00:50:56.195Z,1005.33
2016-09-13T00:51:56.176Z,1005.29
2016-09-13T00:52:56.158Z,1005.31
2016-09-13T00:53:56.141Z,1005.32
2016-09-13T00:54:56.123Z,1005.3
2016-09-13T00:55:56.105Z,1005.3
2016-09-13T00:56:56.088Z,1005.3
2016-09-13T00:57:56.068Z,1005.28
2016-09-13T00:58:56.052Z,1005.27
2016-09-13T00:59:56.034Z,1005.31
2016-09-13T01:00:56.016Z,1005.29
2016-09-13T01:01:55.996Z,1005.27
2016-09-13T01:02:55.978Z,1005.25
2016-09-13T01:03:55.961Z,1005.25
2016-09-13T01:04:55.943Z,1005.24
2016-09-13T01:05:55.925Z,1005.26
2016-09-13T01:06:55.905Z,1005.2
2016-09-13T01:07:55.887Z,1005.23
2016-09-13T01:08:55.871Z,1005.19
2016-09-13T01:09:55.852Z,1005.19
2016-09-13T01:10:55.835Z,1005.17
2016-09-13T01:11:55.819Z,1005.18
2016-09-13T01:12:55.796Z,1005.16
2016-09-13T01:13:55.779Z,1005.15
2016-09-13T01:14:55.760Z,1005.19
2016-09-13T01:15:55.743Z,1005.18
2016-09-13T01:16:55.724Z,1005.13
2016-09-13T01:17:55.706Z,1005.15
2016-09-13T01:18:55.687Z,1005.12
2016-09-13T01:19:55.670Z,1005.11
2016-09-13T01:20:55.652Z,1005.11
2016-09-13T01:21:55.633Z,1005.11
2016-09-13T01:22:55.614Z,1005.11
2016-09-13T01:23:55.597Z,1005.1
2016-09-13T01:24:55.579Z,1005.11
2016-09-13T01:25:55.565Z,1005.1
2016-09-13T01:26:55.542Z,1005.09
2016-09-13T01:27:55.524Z,1005.1
2016-09-13T01:28:55.507Z,1005.1
2016-09-13T01:29:55.487Z,1005.11
2016-09-13T01:30:55.470Z,1005.1
2016-09-13T01:31:55.451Z,1005.11
2016-09-13T01:32:55.432Z,1005.12
2016-09-13T01:33:55.418Z,1005.14
2016-09-13T01:34:55.395Z,1005.11
2016-09-13T01:35:55.385Z,1005.11
2016-09-13T01:36:55.359Z,1005.08
2016-09-13T01:37:55.342Z,1005.07
2016-09-13T01:38:55.323Z,1005.03
2016-09-13T01:39:55.308Z,1005.04
2016-09-13T01:40:55.286Z,1005.06
2016-09-13T01:41:55.269Z,1005.06
2016-09-13T01:42:55.250Z,1005.04
2016-09-13T01:43:55.233Z,1005.03
2016-09-13T01:44:55.264Z,1005.05
2016-09-13T01:45:55.194Z,1005.03
2016-09-13T01:46:55.176Z,1005.03
2016-09-13T01:47:55.159Z,1004.99
2016-09-13T01:48:55.144Z,1005.02
2016-09-13T01:49:55.123Z,1005.01
2016-09-13T01:50:55.104Z,1005
2016-09-13T01:51:55.086Z,1005.01
2016-09-13T01:52:55.070Z,1004.96
2016-09-13T01:53:55.048Z,1004.97
2016-09-13T01:54:55.031Z,1004.94
2016-09-13T01:55:55.012Z,1004.93
2016-09-13T01:56:54.994Z,1004.94
2016-09-13T01:57:54.977Z,1004.91
2016-09-13T01:58:54.958Z,1004.92
2016-09-13T01:59:54.940Z,1004.94
2016-09-13T02:00:54.921Z,1004.95
2016-09-13T02:01:54.902Z,1004.97
2016-09-13T02:02:54.884Z,1004.92
2016-09-13T02:03:54.870Z,1004.95
2016-09-13T02:04:54.847Z,1004.95
2016-09-13T02:05:54.830Z,1004.98
2016-09-13T02:06:54.811Z,1004.99
2016-09-13T02:07:54.793Z,1004.99
2016-09-13T02:08:54.776Z,1004.99
2016-09-13T02:09:54.758Z,1004.99
2016-09-13T02:10:54.738Z,1004.97
2016-09-13T02:11:54.720Z,1004.97
2016-09-13T02:12:54.701Z,1004.98
2016-09-13T02:13:54.684Z,1004.98
2016-09-13T02:14:54.664Z,1004.95
2016-09-13T02:15:54.646Z,1004.96
2016-09-13T02:16:54.628Z,1004.95
2016-09-13T02:17:54.610Z,1004.94
2016-09-13T02:18:54.591Z,1004.97
2016-09-13T02:19:54.575Z,1004.96
2016-09-13T02:20:54.557Z,1004.94
2016-09-13T02:21:54.537Z,1004.95
2016-09-13T02:22:54.519Z,1004.95
2016-09-13T02:23:54.500Z,1004.91
2016-09-13T02:24:54.562Z,1004.92
2016-09-13T02:25:54.463Z,1004.9
2016-09-13T02:26:54.445Z,1004.86
2016-09-13T02:27:54.426Z,1004.82
2016-09-13T02:28:54.410Z,1004.85
2016-09-13T02:29:54.390Z,1004.81
2016-09-13T02:30:54.373Z,1004.8
2016-09-13T02:31:54.355Z,1004.81
2016-09-13T02:32:54.336Z,1004.78
2016-09-13T02:33:54.317Z,1004.76
2016-09-13T02:34:54.298Z,1004.8
2016-09-13T02:35:54.279Z,1004.79
2016-09-13T02:36:54.263Z,1004.79
2016-09-13T02:37:54.242Z,1004.79
2016-09-13T02:38:54.228Z,1004.76
2016-09-13T02:39:54.208Z,1004.76
2016-09-13T02:40:54.187Z,1004.77
2016-09-13T02:41:54.169Z,1004.77
2016-09-13T02:42:54.151Z,1004.76
2016-09-13T02:43:54.132Z,1004.73
2016-09-13T02:44:54.114Z,1004.75
2016-09-13T02:45:54.096Z,1004.74
2016-09-13T02:46:54.077Z,1004.74
2016-09-13T02:47:54.059Z,1004.77
2016-09-13T02:48:54.044Z,1004.71
2016-09-13T02:49:54.023Z,1004.73
2016-09-13T02:50:54.004Z,1004.72
2016-09-13T02:51:53.985Z,1004.7
2016-09-13T02:52:53.967Z,1004.73
2016-09-13T02:53:53.948Z,1004.7
2016-09-13T02:54:53.930Z,1004.69
2016-09-13T02:55:53.912Z,1004.69
2016-09-13T02:56:53.892Z,1004.69
2016-09-13T02:57:53.874Z,1004.7
2016-09-13T02:58:53.856Z,1004.67
2016-09-13T02:59:53.836Z,1004.66
2016-09-13T03:00:53.819Z,1004.66
2016-09-13T03:01:53.800Z,1004.67
2016-09-13T03:02:53.780Z,1004.68
2016-09-13T03:03:53.762Z,1004.64
2016-09-13T03:04:53.745Z,1004.7
2016-09-13T03:05:53.727Z,1004.65
2016-09-13T03:06:53.706Z,1004.63
2016-09-13T03:07:53.689Z,1004.67
2016-09-13T03:08:53.671Z,1004.63
2016-09-13T03:09:53.652Z,1004.66
2016-09-13T03:10:53.633Z,1004.62
2016-09-13T03:11:53.614Z,1004.64
2016-09-13T03:12:53.596Z,1004.64
2016-09-13T03:13:53.577Z,1004.63
2016-09-13T03:14:53.560Z,1004.65
2016-09-13T03:15:53.540Z,1004.63
2016-09-13T03:16:53.523Z,1004.61
2016-09-13T03:17:53.503Z,1004.61
2016-09-13T03:18:53.487Z,1004.62
2016-09-13T03:19:53.467Z,1004.62
2016-09-13T03:20:53.449Z,1004.58
2016-09-13T03:21:53.430Z,1004.61
2016-09-13T03:22:53.411Z,1004.59
2016-09-13T03:23:53.394Z,1004.62
2016-09-13T03:24:53.374Z,1004.59
2016-09-13T03:25:53.356Z,1004.59
2016-09-13T03:26:53.337Z,1004.6
2016-09-13T03:27:53.319Z,1004.61
2016-09-13T03:28:53.299Z,1004.61
2016-09-13T03:29:53.281Z,1004.6
2016-09-13T03:30:53.264Z,1004.57
2016-09-13T03:31:53.243Z,1004.59
2016-09-13T03:32:53.225Z,1004.57
2016-09-13T03:33:53.207Z,1004.55
2016-09-13T03:34:53.188Z,1004.56
2016-09-13T03:35:53.169Z,1004.55
2016-09-13T03:36:53.151Z,1004.53
2016-09-13T03:37:53.131Z,1004.52
2016-09-13T03:38:53.113Z,1004.53
2016-09-13T03:39:53.094Z,1004.49
2016-09-13T03:40:53.075Z,1004.51
2016-09-13T03:41:53.057Z,1004.52
2016-09-13T03:42:53.037Z,1004.49
2016-09-13T03:43:53.019Z,1004.49
2016-09-13T03:44:53.001Z,1004.49
2016-09-13T03:45:52.982Z,1004.55
2016-09-13T03:46:52.964Z,1004.54
2016-09-13T03:47:52.945Z,1004.5
2016-09-13T03:48:52.925Z,1004.53
2016-09-13T03:49:52.907Z,1004.5
2016-09-13T03:50:52.888Z,1004.54
2016-09-13T03:51:52.870Z,1004.52
2016-09-13T03:52:52.852Z,1004.49
2016-09-13T03:53:52.832Z,1004.52
2016-09-13T03:54:52.813Z,1004.5
2016-09-13T03:55:52.796Z,1004.5
2016-09-13T03:56:52.778Z,1004.47
2016-09-13T03:57:52.756Z,1004.48
2016-09-13T03:58:52.738Z,1004.48
2016-09-13T03:59:52.720Z,1004.45
2016-09-13T04:00:52.701Z,1004.46
2016-09-13T04:01:52.682Z,1004.45
2016-09-13T04:02:52.663Z,1004.42
2016-09-13T04:03:52.644Z,1004.43
2016-09-13T04:04:52.626Z,1004.42
2016-09-13T04:05:52.606Z,1004.41
2016-09-13T04:06:52.590Z,1004.44
2016-09-13T04:07:52.571Z,1004.42
2016-09-13T04:08:52.550Z,1004.41
2016-09-13T04:09:52.533Z,1004.43
2016-09-13T04:10:52.514Z,1004.45
2016-09-13T04:11:52.494Z,1004.46
2016-09-13T04:12:52.475Z,1004.42
2016-09-13T04:13:52.456Z,1004.44
2016-09-13T04:14:52.438Z,1004.43
2016-09-13T04:15:52.418Z,1004.43
2016-09-13T04:16:52.400Z,1004.46
2016-09-13T04:17:52.381Z,1004.44
2016-09-13T04:18:52.364Z,1004.46
2016-09-13T04:19:52.348Z,1004.45
2016-09-13T04:20:52.326Z,1004.43
2016-09-13T04:21:52.306Z,1004.44
2016-09-13T04:22:52.287Z,1004.45
2016-09-13T04:23:52.269Z,1004.44
2016-09-13T04:24:52.250Z,1004.45
2016-09-13T04:25:52.232Z,1004.43
2016-09-13T04:26:52.212Z,1004.42
2016-09-13T04:27:52.194Z,1004.41
2016-09-13T04:28:52.175Z,1004.38
2016-09-13T04:29:52.157Z,1004.42
2016-09-13T04:30:52.138Z,1004.38
2016-09-13T04:31:52.118Z,1004.4
2016-09-13T04:32:52.100Z,1004.38
2016-09-13T04:33:52.080Z,1004.37
2016-09-13T04:34:52.062Z,1004.38
2016-09-13T04:35:52.043Z,1004.4
2016-09-13T04:36:52.024Z,1004.38
2016-09-13T04:37:52.004Z,1004.39
2016-09-13T04:38:51.987Z,1004.38
2016-09-13T04:39:51.968Z,1004.39
2016-09-13T04:40:51.951Z,1004.38
2016-09-13T04:41:51.929Z,1004.41
2016-09-13T04:42:51.911Z,1004.44
2016-09-13T04:43:51.893Z,1004.44
2016-09-13T04:44:51.873Z,1004.44
2016-09-13T04:45:51.854Z,1004.4
2016-09-13T04:46:51.834Z,1004.41
2016-09-13T04:47:51.816Z,1004.41
2016-09-13T04:48:51.796Z,1004.4
2016-09-13T04:49:51.779Z,1004.39
2016-09-13T04:50:51.760Z,1004.4
2016-09-13T04:51:51.741Z,1004.43
2016-09-13T04:52:51.723Z,1004.41
2016-09-13T04:53:51.704Z,1004.39
2016-09-13T04:54:51.685Z,1004.47
2016-09-13T04:55:51.666Z,1004.42
2016-09-13T04:56:51.649Z,1004.43
2016-09-13T04:57:51.629Z,1004.44
2016-09-13T04:58:51.609Z,1004.46
2016-09-13T04:59:51.591Z,1004.47
2016-09-13T05:00:51.572Z,1004.48
2016-09-13T05:01:51.554Z,1004.45
2016-09-13T05:02:51.533Z,1004.46
2016-09-13T05:03:51.515Z,1004.49
2016-09-13T05:04:51.497Z,1004.5
2016-09-13T05:05:51.478Z,1004.52
2016-09-13T05:06:51.459Z,1004.48
2016-09-13T05:07:51.439Z,1004.52
2016-09-13T05:08:51.422Z,1004.51
2016-09-13T05:09:51.403Z,1004.55
2016-09-13T05:10:51.383Z,1004.54
2016-09-13T05:11:51.365Z,1004.57
2016-09-13T05:12:51.346Z,1004.55
2016-09-13T05:13:51.326Z,1004.58
2016-09-13T05:14:51.308Z,1004.6
2016-09-13T05:15:51.290Z,1004.58
2016-09-13T05:16:51.270Z,1004.63
2016-09-13T05:17:51.252Z,1004.62
2016-09-13T05:18:51.232Z,1004.63
2016-09-13T05:19:51.215Z,1004.65
2016-09-13T05:20:51.197Z,1004.66
2016-09-13T05:21:51.176Z,1004.62
2016-09-13T05:22:51.158Z,1004.66
2016-09-13T05:23:51.140Z,1004.68
2016-09-13T05:24:51.127Z,1004.64
2016-09-13T05:25:51.103Z,1004.61
2016-09-13T05:26:51.083Z,1004.59
2016-09-13T05:27:51.065Z,1004.6
2016-09-13T05:28:51.046Z,1004.58
2016-09-13T05:29:51.031Z,1004.6
2016-09-13T05:30:51.008Z,1004.6
2016-09-13T05:31:50.990Z,1004.6
2016-09-13T05:32:50.971Z,1004.59
2016-09-13T05:33:50.952Z,1004.57
2016-09-13T05:34:50.935Z,1004.58
2016-09-13T05:35:50.915Z,1004.58
2016-09-13T05:36:50.896Z,1004.57
2016-09-13T05:37:50.878Z,1004.58
2016-09-13T05:38:50.861Z,1004.57
2016-09-13T05:39:50.841Z,1004.58
2016-09-13T05:40:50.823Z,1004.59
2016-09-13T05:41:50.805Z,1004.57
2016-09-13T05:42:50.787Z,1004.59
2016-09-13T05:43:50.767Z,1004.56
2016-09-13T05:44:50.747Z,1004.59
2016-09-13T05:45:50.731Z,1004.57
2016-09-13T05:46:50.709Z,1004.6
2016-09-13T05:47:50.693Z,1004.61
2016-09-13T05:48:50.674Z,1004.63
2016-09-13T05:49:50.656Z,1004.58
2016-09-13T05:50:50.636Z,1004.61
2016-09-13T05:51:50.618Z,1004.65
2016-09-13T05:52:50.601Z,1004.64
2016-09-13T05:53:50.582Z,1004.62
2016-09-13T05:54:50.565Z,1004.63
2016-09-13T05:55:50.546Z,1004.61
2016-09-13T05:56:50.714Z,1004.66
2016-09-13T05:57:50.508Z,1004.61
2016-09-13T05:58:50.490Z,1004.64
2016-09-13T05:59:50.472Z,1004.62
2016-09-13T06:00:50.455Z,1004.66
2016-09-13T06:01:50.435Z,1004.67
2016-09-13T06:02:50.417Z,1004.66
2016-09-13T06:03:50.399Z,1004.65
2016-09-13T06:04:50.382Z,1004.67
2016-09-13T06:05:50.365Z,1004.68
2016-09-13T06:06:50.347Z,1004.71
2016-09-13T06:07:50.327Z,1004.73
2016-09-13T06:08:50.311Z,1004.73
2016-09-13T06:09:50.291Z,1004.68
2016-09-13T06:10:50.274Z,1004.7
2016-09-13T06:11:50.258Z,1004.68
2016-09-13T06:12:50.239Z,1004.69
2016-09-13T06:13:50.221Z,1004.69
2016-09-13T06:14:50.204Z,1004.72
2016-09-13T06:15:50.185Z,1004.75
2016-09-13T06:16:50.167Z,1004.73
2016-09-13T06:17:50.149Z,1004.74
2016-09-13T06:18:50.131Z,1004.76
2016-09-13T06:19:50.113Z,1004.74
2016-09-13T06:20:50.099Z,1004.77
2016-09-13T06:21:50.080Z,1004.78
2016-09-13T06:22:50.061Z,1004.79
2016-09-13T06:23:50.043Z,1004.81
2016-09-13T06:24:50.026Z,1004.8
2016-09-13T06:25:50.009Z,1004.8
2016-09-13T06:26:49.992Z,1004.81
2016-09-13T06:27:49.975Z,1004.86
2016-09-13T06:28:49.957Z,1004.84
2016-09-13T06:29:49.940Z,1004.87
2016-09-13T06:30:49.922Z,1004.89
2016-09-13T06:31:49.904Z,1004.86
2016-09-13T06:32:49.888Z,1004.85
2016-09-13T06:33:49.870Z,1004.86
2016-09-13T06:34:49.852Z,1004.83
2016-09-13T06:35:49.836Z,1004.84
2016-09-13T06:36:49.820Z,1004.82
2016-09-13T06:37:49.801Z,1004.85
2016-09-13T06:38:49.785Z,1004.86
2016-09-13T06:39:49.767Z,1004.87
2016-09-13T06:40:49.750Z,1004.83
2016-09-13T06:41:49.732Z,1004.88
2016-09-13T06:42:49.715Z,1004.86
2016-09-13T06:43:49.698Z,1004.88
2016-09-13T06:44:49.682Z,1004.88
2016-09-13T06:45:49.670Z,1004.9
2016-09-13T06:46:49.648Z,1004.87
2016-09-13T06:47:49.631Z,1004.89
2016-09-13T06:48:49.613Z,1004.88
2016-09-13T06:49:49.597Z,1004.88
2016-09-13T06:50:49.581Z,1004.85
2016-09-13T06:51:49.563Z,1004.88
2016-09-13T06:52:49.546Z,1004.89
2016-09-13T06:53:49.531Z,1004.82
2016-09-13T06:54:49.513Z,1004.85
2016-09-13T06:55:49.498Z,1004.84
2016-09-13T06:56:49.479Z,1004.85
2016-09-13T06:57:49.464Z,1004.87
2016-09-13T06:58:49.447Z,1004.85
2016-09-13T06:59:49.429Z,1004.89
2016-09-13T07:00:49.413Z,1004.87
2016-09-13T07:01:49.397Z,1004.88
2016-09-13T07:02:49.382Z,1004.88
2016-09-13T07:03:49.364Z,1004.93
2016-09-13T07:04:49.348Z,1004.91
2016-09-13T07:05:49.331Z,1004.88
2016-09-13T07:06:49.317Z,1004.9
2016-09-13T07:07:49.299Z,1004.89
2016-09-13T07:08:49.282Z,1004.92
2016-09-13T07:09:49.267Z,1004.93
2016-09-13T07:10:49.250Z,1004.93
2016-09-13T07:11:49.236Z,1004.88
2016-09-13T07:12:49.218Z,1004.89
2016-09-13T07:13:49.204Z,1004.97
2016-09-13T07:14:49.185Z,1004.92
2016-09-13T07:15:49.172Z,1004.92
2016-09-13T07:16:49.155Z,1004.95
2016-09-13T07:17:49.139Z,1004.94
2016-09-13T07:18:49.122Z,1004.94
2016-09-13T07:19:49.108Z,1004.94
2016-09-13T07:20:49.091Z,1004.93
2016-09-13T07:21:49.076Z,1004.92
2016-09-13T07:22:49.059Z,1004.96
2016-09-13T07:23:49.043Z,1004.94
2016-09-13T07:24:49.030Z,1004.97
2016-09-13T07:25:49.013Z,1004.99
2016-09-13T07:26:48.997Z,1005.01
2016-09-13T07:27:48.982Z,1004.96
2016-09-13T07:28:48.965Z,1005
2016-09-13T07:29:48.951Z,1005.02
2016-09-13T07:30:49.061Z,1004.98
2016-09-13T07:31:48.920Z,1005.01
2016-09-13T07:32:48.903Z,1004.99
2016-09-13T07:33:48.888Z,1005.01
2016-09-13T07:34:48.874Z,1005.02
2016-09-13T07:35:48.858Z,1005.02
2016-09-13T07:36:48.843Z,1005.02
2016-09-13T07:37:48.826Z,1005.04
2016-09-13T07:38:48.863Z,1005.04
2016-09-13T07:39:48.797Z,1005.03
2016-09-13T07:40:48.780Z,1005.03
2016-09-13T07:41:48.767Z,1005.04
2016-09-13T07:42:48.751Z,1005.01
2016-09-13T07:43:48.735Z,1005
2016-09-13T07:44:48.719Z,1004.99
2016-09-13T07:45:48.706Z,1004.99
2016-09-13T07:46:48.691Z,1005.01
2016-09-13T07:47:48.676Z,1005.01
2016-09-13T07:48:48.659Z,1005
2016-09-13T07:49:48.702Z,1004.99
2016-09-13T07:50:48.631Z,1005.02
2016-09-13T07:51:48.616Z,1005.03
2016-09-13T07:52:48.602Z,1005.02
2016-09-13T07:53:48.587Z,1005
2016-09-13T07:54:48.572Z,1005.04
2016-09-13T07:55:48.557Z,1005.05
2016-09-13T07:56:48.543Z,1005.03
2016-09-13T07:57:48.530Z,1005.01
2016-09-13T07:58:48.513Z,1004.99
2016-09-13T07:59:48.500Z,1004.99
2016-09-13T08:00:48.485Z,1005
2016-09-13T08:01:48.472Z,1004.99
2016-09-13T08:02:48.457Z,1005.01
2016-09-13T08:03:48.442Z,1005.02
2016-09-13T08:04:48.431Z,1004.98
2016-09-13T08:05:48.414Z,1004.98
2016-09-13T08:06:48.405Z,1005.01
2016-09-13T08:07:48.385Z,1004.97
2016-09-13T08:08:48.372Z,1004.97
2016-09-13T08:09:48.356Z,1004.98
2016-09-13T08:10:48.344Z,1004.95
2016-09-13T08:11:48.329Z,1004.95
2016-09-13T08:12:48.314Z,1004.94
2016-09-13T08:13:48.301Z,1004.94
2016-09-13T08:14:48.285Z,1004.88
2016-09-13T08:15:48.272Z,1004.86
2016-09-13T08:16:48.259Z,1004.91
2016-09-13T08:17:48.244Z,1004.91
2016-09-13T08:18:48.237Z,1004.9
2016-09-13T08:19:48.217Z,1004.88
2016-09-13T08:20:48.202Z,1004.92
2016-09-13T08:21:48.191Z,1004.91
2016-09-13T08:22:48.176Z,1004.91
2016-09-13T08:23:48.161Z,1004.91
2016-09-13T08:24:48.148Z,1004.91
2016-09-13T08:25:48.133Z,1004.97
2016-09-13T08:26:48.120Z,1004.97
2016-09-13T08:27:48.121Z,1004.96
2016-09-13T08:28:48.142Z,1004.94
2016-09-13T08:29:48.080Z,1004.99
2016-09-13T08:30:48.067Z,1004.98
2016-09-13T08:31:48.051Z,1004.94
2016-09-13T08:32:48.038Z,1004.95
2016-09-13T08:33:48.025Z,1004.94
2016-09-13T08:34:48.010Z,1004.9
2016-09-13T08:35:47.997Z,1004.89
2016-09-13T08:36:47.984Z,1004.91
2016-09-13T08:37:47.971Z,1004.92
2016-09-13T08:38:47.957Z,1004.93
2016-09-13T08:39:47.949Z,1004.93
2016-09-13T08:40:47.931Z,1004.93
2016-09-13T08:41:47.918Z,1004.92
2016-09-13T08:42:47.904Z,1004.91
2016-09-13T08:43:47.892Z,1004.92
2016-09-13T08:44:47.879Z,1004.92
2016-09-13T08:45:47.863Z,1004.91
2016-09-13T08:46:47.851Z,1004.89
2016-09-13T08:47:47.839Z,1004.9
2016-09-13T08:48:47.827Z,1004.89
2016-09-13T08:49:47.812Z,1004.91
2016-09-13T08:50:47.799Z,1004.9
2016-09-13T08:51:47.785Z,1004.91
2016-09-13T08:52:47.774Z,1004.88
2016-09-13T08:53:47.759Z,1004.89
2016-09-13T08:54:47.747Z,1004.92
2016-09-13T08:55:47.735Z,1004.9
2016-09-13T08:56:47.721Z,1004.86
2016-09-13T08:57:47.709Z,1004.85
2016-09-13T08:58:47.695Z,1004.83
2016-09-13T08:59:47.682Z,1004.85
2016-09-13T09:00:47.669Z,1004.82
2016-09-13T09:01:47.658Z,1004.79
2016-09-13T09:02:47.645Z,1004.82
2016-09-13T09:03:47.634Z,1004.79
2016-09-13T09:04:47.619Z,1004.81
2016-09-13T09:05:47.606Z,1004.83
2016-09-13T09:06:47.594Z,1004.84
2016-09-13T09:07:47.580Z,1004.83
2016-09-13T09:08:47.567Z,1004.82
2016-09-13T09:09:47.557Z,1004.84
2016-09-13T09:10:47.543Z,1004.82
2016-09-13T09:11:47.530Z,1004.82
2016-09-13T09:12:47.518Z,1004.83
2016-09-13T09:13:47.507Z,1004.82
2016-09-13T09:14:47.494Z,1004.79
2016-09-13T09:15:47.482Z,1004.82
2016-09-13T09:16:47.469Z,1004.83
2016-09-13T09:17:47.456Z,1004.8
2016-09-13T09:18:47.444Z,1004.82
2016-09-13T09:19:47.431Z,1004.79
2016-09-13T09:20:47.420Z,1004.8
2016-09-13T09:21:47.407Z,1004.84
2016-09-13T09:22:47.394Z,1004.86
2016-09-13T09:23:47.383Z,1004.82
2016-09-13T09:24:47.371Z,1004.81
2016-09-13T09:25:47.368Z,1004.78
2016-09-13T09:26:47.346Z,1004.75
2016-09-13T09:27:47.334Z,1004.77
2016-09-13T09:28:47.322Z,1004.76
2016-09-13T09:29:47.310Z,1004.76
2016-09-13T09:30:47.298Z,1004.78
2016-09-13T09:31:47.285Z,1004.76
2016-09-13T09:32:47.274Z,1004.79
2016-09-13T09:33:47.261Z,1004.74
2016-09-13T09:34:47.250Z,1004.77
2016-09-13T09:35:47.239Z,1004.76
2016-09-13T09:36:47.227Z,1004.73
2016-09-13T09:37:47.215Z,1004.73
2016-09-13T09:38:47.204Z,1004.71
2016-09-13T09:39:47.192Z,1004.73
2016-09-13T09:40:47.180Z,1004.7
2016-09-13T09:41:47.168Z,1004.7
2016-09-13T09:42:47.156Z,1004.66
2016-09-13T09:43:47.145Z,1004.62
2016-09-13T09:44:47.132Z,1004.62
2016-09-13T09:45:47.122Z,1004.61
2016-09-13T09:46:47.109Z,1004.6
2016-09-13T09:47:47.101Z,1004.6
2016-09-13T09:48:47.087Z,1004.62
2016-09-13T09:49:47.076Z,1004.57
2016-09-13T09:50:47.064Z,1004.62
2016-09-13T09:51:47.051Z,1004.59
2016-09-13T09:52:47.041Z,1004.53
2016-09-13T09:53:47.030Z,1004.53
2016-09-13T09:54:47.017Z,1004.51
2016-09-13T09:55:47.005Z,1004.51
2016-09-13T09:56:46.997Z,1004.49
2016-09-13T09:57:46.983Z,1004.49
2016-09-13T09:58:46.975Z,1004.51
2016-09-13T09:59:46.961Z,1004.49
2016-09-13T10:00:46.949Z,1004.49
2016-09-13T10:01:46.938Z,1004.43
2016-09-13T10:02:46.927Z,1004.42
2016-09-13T10:03:46.914Z,1004.42
2016-09-13T10:04:46.904Z,1004.4
2016-09-13T10:05:46.894Z,1004.37
2016-09-13T10:06:46.882Z,1004.39
2016-09-13T10:07:46.870Z,1004.38
2016-09-13T10:08:46.859Z,1004.38
2016-09-13T10:09:46.847Z,1004.31
2016-09-13T10:10:46.837Z,1004.36
2016-09-13T10:11:46.825Z,1004.37
2016-09-13T10:12:46.815Z,1004.29
2016-09-13T10:13:46.802Z,1004.29
2016-09-13T10:14:46.793Z,1004.27
2016-09-13T10:15:46.781Z,1004.26
2016-09-13T10:16:46.772Z,1004.25
2016-09-13T10:17:46.758Z,1004.28
2016-09-13T10:18:46.748Z,1004.25
2016-09-13T10:19:46.738Z,1004.22
2016-09-13T10:20:46.725Z,1004.23
2016-09-13T10:21:46.714Z,1004.22
2016-09-13T10:22:46.705Z,1004.23
2016-09-13T10:23:46.695Z,1004.21
2016-09-13T10:24:46.682Z,1004.18
2016-09-13T10:25:46.673Z,1004.22
2016-09-13T10:26:46.661Z,1004.16
2016-09-13T10:27:46.651Z,1004.17
2016-09-13T10:28:46.639Z,1004.22
2016-09-13T10:29:46.630Z,1004.15
2016-09-13T10:30:46.618Z,1004.18
2016-09-13T10:31:46.607Z,1004.13
2016-09-13T10:32:46.596Z,1004.18
2016-09-13T10:33:46.586Z,1004.14
2016-09-13T10:34:46.576Z,1004.14
2016-09-13T10:35:46.565Z,1004.14
2016-09-13T10:36:46.554Z,1004.12
2016-09-13T10:37:46.543Z,1004.09
2016-09-13T10:38:46.533Z,1004.11
2016-09-13T10:39:46.521Z,1004.1
2016-09-13T10:40:46.512Z,1004.11
2016-09-13T10:41:46.502Z,1004.12
2016-09-13T10:42:46.491Z,1004.08
2016-09-13T10:43:46.479Z,1004.09
2016-09-13T10:44:46.499Z,1004.11
2016-09-13T10:45:46.459Z,1004.09
2016-09-13T10:46:46.449Z,1004.09
2016-09-13T10:47:46.438Z,1004.08
2016-09-13T10:48:46.427Z,1004.04
2016-09-13T10:49:46.418Z,1004.06
2016-09-13T10:50:46.408Z,1004.06
2016-09-13T10:51:46.398Z,1004.04
2016-09-13T10:52:46.387Z,1004.04
2016-09-13T10:53:46.376Z,1004.02
2016-09-13T10:54:46.365Z,1004.02
2016-09-13T10:55:46.355Z,1004.02
2016-09-13T10:56:46.346Z,1004
2016-09-13T10:57:46.334Z,1003.98
2016-09-13T10:58:46.324Z,1004.01
2016-09-13T10:59:46.315Z,1004
2016-09-13T11:00:46.317Z,1004.02
2016-09-13T11:01:46.293Z,1004.01
2016-09-13T11:02:46.284Z,1003.97
2016-09-13T11:03:46.275Z,1003.97
2016-09-13T11:04:46.266Z,1003.9
2016-09-13T11:05:46.253Z,1003.93
2016-09-13T11:06:46.244Z,1003.92
2016-09-13T11:07:46.233Z,1003.93
2016-09-13T11:08:46.223Z,1003.92
2016-09-13T11:09:46.213Z,1003.88
2016-09-13T11:10:46.203Z,1003.92
2016-09-13T11:11:46.192Z,1003.89
2016-09-13T11:12:46.184Z,1003.9
2016-09-13T11:13:46.173Z,1003.9
2016-09-13T11:14:46.163Z,1003.86
2016-09-13T11:15:46.153Z,1003.87
2016-09-13T11:16:46.144Z,1003.86
2016-09-13T11:17:46.135Z,1003.83
2016-09-13T11:18:46.125Z,1003.81
2016-09-13T11:19:46.113Z,1003.8
2016-09-13T11:20:46.103Z,1003.83
2016-09-13T11:21:46.094Z,1003.81
2016-09-13T11:22:46.082Z,1003.78
2016-09-13T11:23:46.074Z,1003.76
2016-09-13T11:24:46.065Z,1003.76
2016-09-13T11:25:46.055Z,1003.73
2016-09-13T11:26:46.044Z,1003.75
2016-09-13T11:27:46.033Z,1003.72
2016-09-13T11:28:46.024Z,1003.7
2016-09-13T11:29:46.013Z,1003.74
2016-09-13T11:30:46.003Z,1003.73
2016-09-13T11:31:45.994Z,1003.68
2016-09-13T11:32:45.984Z,1003.72
2016-09-13T11:33:45.974Z,1003.72
2016-09-13T11:34:45.964Z,1003.72
2016-09-13T11:35:45.955Z,1003.72
2016-09-13T11:36:45.945Z,1003.72
2016-09-13T11:37:45.935Z,1003.72
2016-09-13T11:38:45.925Z,1003.71
2016-09-13T11:39:45.917Z,1003.66
2016-09-13T11:40:45.908Z,1003.64
2016-09-13T11:41:45.897Z,1003.66
2016-09-13T11:42:45.886Z,1003.64
2016-09-13T11:43:45.878Z,1003.65
2016-09-13T11:44:45.868Z,1003.63
2016-09-13T11:45:45.859Z,1003.62
2016-09-13T11:46:45.848Z,1003.6
2016-09-13T11:47:45.839Z,1003.57
2016-09-13T11:48:45.829Z,1003.58
2016-09-13T11:49:45.819Z,1003.56
2016-09-13T11:50:45.811Z,1003.56
2016-09-13T11:51:45.802Z,1003.54
2016-09-13T11:52:45.791Z,1003.57
2016-09-13T11:53:45.782Z,1003.53
2016-09-13T11:54:45.774Z,1003.59
2016-09-13T11:55:45.762Z,1003.58
2016-09-13T11:56:45.753Z,1003.53
2016-09-13T11:57:45.742Z,1003.57
2016-09-13T11:58:45.735Z,1003.54
2016-09-13T11:59:45.723Z,1003.54
2016-09-13T12:00:45.714Z,1003.52
2016-09-13T12:01:45.706Z,1003.54
2016-09-13T12:02:45.696Z,1003.58
2016-09-13T12:03:45.687Z,1003.54
2016-09-13T12:04:45.677Z,1003.55
2016-09-13T12:05:45.669Z,1003.5
2016-09-13T12:06:45.658Z,1003.5
2016-09-13T12:07:45.648Z,1003.55
2016-09-13T12:08:45.640Z,1003.52